createdAt,value
2018-05-29T00:00:58.338Z,38.71
2018-05-29T00:01:58.359Z,39.11
2018-05-29T00:02:58.114Z,39.18
2018-05-29T00:03:58.429Z,38.99
2018-05-29T00:04:58.172Z,38.99
2018-05-29T00:05:58.485Z,39.18
2018-05-29T00:06:58.225Z,39.18
2018-05-29T00:07:58.525Z,39.47
2018-05-29T00:08:58.542Z,39.28
2018-05-29T00:09:58.582Z,39.86
2018-05-29T00:10:58.621Z,39.67
2018-05-29T00:11:58.633Z,39.37
2018-05-29T00:12:58.406Z,39.47
2018-05-29T00:13:58.415Z,39.47
2018-05-29T00:14:58.741Z,39.57
2018-05-29T00:15:58.741Z,39.67
2018-05-29T00:16:58.789Z,39.57
2018-05-29T00:17:58.529Z,39.37
2018-05-29T00:18:58.838Z,39.57
2018-05-29T00:19:58.870Z,39.55
2018-05-29T00:20:58.901Z,39.65
2018-05-29T00:21:58.919Z,39.65
2018-05-29T00:22:58.951Z,39.94
2018-05-29T00:23:58.691Z,39.86
2018-05-29T00:24:58.996Z,39.74
2018-05-29T00:25:58.762Z,39.84
2018-05-29T00:26:59.062Z,39.84
2018-05-29T00:27:59.069Z,40.13
2018-05-29T00:28:59.117Z,40.33
2018-05-29T00:29:58.899Z,39.94
2018-05-29T00:30:59.151Z,39.94
2018-05-29T00:31:58.918Z,39.94
2018-05-29T00:32:58.949Z,40.03
2018-05-29T00:33:59.239Z,40.33
2018-05-29T00:34:59.283Z,40.13
2018-05-29T00:35:59.300Z,39.94
2018-05-29T00:36:59.056Z,40.23
2018-05-29T00:37:59.073Z,39.94
2018-05-29T00:38:59.114Z,39.94
2018-05-29T00:39:59.406Z,40.13
2018-05-29T00:40:59.430Z,40.13
2018-05-29T00:41:59.466Z,39.94
2018-05-29T00:42:59.496Z,40.03
2018-05-29T00:43:59.525Z,40.52
2018-05-29T00:44:59.552Z,40.23
2018-05-29T00:45:59.316Z,40.23
2018-05-29T00:46:59.613Z,40.33
2018-05-29T00:47:59.629Z,40.33
2018-05-29T00:48:59.661Z,40.33
2018-05-29T00:49:59.683Z,40.42
2018-05-29T00:50:59.714Z,40.31
2018-05-29T00:51:59.474Z,40.31
2018-05-29T00:52:59.772Z,40.13
2018-05-29T00:53:59.944Z,40.5
2018-05-29T00:54:59.827Z,40.4
2018-05-29T00:55:59.848Z,40.31
2018-05-29T00:56:59.599Z,40.31
2018-05-29T00:57:59.901Z,40.69
2018-05-29T00:58:59.654Z,40.59
2018-05-29T00:59:59.954Z,40.4
2018-05-29T01:00:59.972Z,40.69
2018-05-29T01:01:59.741Z,40.69
2018-05-29T01:03:00.021Z,41.17
2018-05-29T01:04:00.099Z,40.89
2018-05-29T01:05:00.095Z,40.79
2018-05-29T01:06:00.132Z,40.89
2018-05-29T01:06:59.864Z,40.79
2018-05-29T01:08:00.163Z,40.99
2018-05-29T01:09:00.016Z,40.99
2018-05-29T01:10:00.232Z,41.37
2018-05-29T01:11:00.247Z,41.47
2018-05-29T01:12:00.261Z,41.27
2018-05-29T01:13:00.316Z,41.16
2018-05-29T01:14:00.336Z,41.56
2018-05-29T01:15:00.359Z,41.35
2018-05-29T01:16:00.102Z,41.37
2018-05-29T01:17:00.418Z,41.35
2018-05-29T01:18:00.428Z,41.45
2018-05-29T01:19:00.529Z,41.66
2018-05-29T01:20:00.502Z,41.64
2018-05-29T01:21:00.528Z,41.35
2018-05-29T01:22:00.538Z,41.27
2018-05-29T01:23:00.751Z,41.35
2018-05-29T01:24:00.607Z,41.35
2018-05-29T01:25:00.612Z,41.35
2018-05-29T01:26:00.649Z,41.93
2018-05-29T01:27:00.669Z,41.93
2018-05-29T01:28:00.708Z,42.13
2018-05-29T01:29:00.734Z,42.13
2018-05-29T01:30:00.490Z,42.32
2018-05-29T01:31:00.787Z,42.13
2018-05-29T01:32:00.544Z,42.22
2018-05-29T01:33:00.832Z,42.22
2018-05-29T01:34:00.866Z,42.22
2018-05-29T01:35:00.883Z,42.32
2018-05-29T01:36:00.941Z,42.32
2018-05-29T01:37:00.946Z,42.32
2018-05-29T01:38:00.961Z,42.71
2018-05-29T01:39:00.998Z,42.41
2018-05-29T01:40:01.039Z,42.32
2018-05-29T01:41:01.059Z,42.61
2018-05-29T01:42:01.092Z,42.61
2018-05-29T01:43:01.090Z,42.68
2018-05-29T01:44:01.124Z,42.61
2018-05-29T01:45:00.887Z,42.78
2018-05-29T01:46:01.178Z,42.68
2018-05-29T01:47:01.218Z,42.3
2018-05-29T01:48:01.239Z,42.8
2018-05-29T01:49:01.251Z,42.68
2018-05-29T01:50:01.287Z,42.59
2018-05-29T01:51:01.326Z,42.88
2018-05-29T01:52:01.365Z,42.68
2018-05-29T01:53:01.376Z,42.88
2018-05-29T01:54:01.393Z,43.27
2018-05-29T01:55:01.430Z,42.49
2018-05-29T01:56:01.471Z,43.07
2018-05-29T01:57:01.203Z,43.07
2018-05-29T01:58:01.234Z,42.88
2018-05-29T01:59:01.259Z,42.78
2018-05-29T02:00:01.545Z,43.07
2018-05-29T02:01:01.589Z,43.27
2018-05-29T02:02:01.607Z,42.97
2018-05-29T02:03:01.643Z,42.88
2018-05-29T02:04:01.677Z,42.88
2018-05-29T02:05:01.423Z,42.78
2018-05-29T02:06:01.721Z,43.17
2018-05-29T02:07:01.754Z,43.17
2018-05-29T02:08:01.760Z,43.55
2018-05-29T02:09:01.800Z,43.75
2018-05-29T02:10:01.830Z,43.75
2018-05-29T02:11:01.903Z,44.13
2018-05-29T02:12:01.861Z,43.73
2018-05-29T02:13:01.985Z,43.44
2018-05-29T02:14:01.646Z,43.05
2018-05-29T02:15:01.946Z,43.75
2018-05-29T02:16:01.962Z,43.55
2018-05-29T02:17:01.726Z,43.63
2018-05-29T02:18:02.038Z,43.73
2018-05-29T02:19:02.051Z,43.54
2018-05-29T02:20:02.091Z,43.73
2018-05-29T02:21:02.118Z,43.54
2018-05-29T02:22:02.144Z,43.63
2018-05-29T02:23:01.898Z,43.73
2018-05-29T02:24:02.171Z,43.63
2018-05-29T02:25:02.214Z,43.73
2018-05-29T02:26:02.226Z,43.82
2018-05-29T02:27:01.989Z,43.73
2018-05-29T02:28:02.289Z,43.92
2018-05-29T02:29:02.048Z,43.92
2018-05-29T02:30:02.330Z,44.02
2018-05-29T02:31:02.361Z,44.02
2018-05-29T02:32:02.387Z,44.02
2018-05-29T02:33:02.417Z,44.12
2018-05-29T02:34:02.168Z,44.12
2018-05-29T02:35:02.209Z,44.02
2018-05-29T02:36:02.502Z,44.12
2018-05-29T02:37:02.514Z,43.92
2018-05-29T02:38:02.549Z,44.02
2018-05-29T02:39:02.636Z,44.4
2018-05-29T02:40:02.614Z,44.4
2018-05-29T02:41:02.636Z,44.31
2018-05-29T02:42:02.683Z,44.4
2018-05-29T02:43:02.674Z,44.7
2018-05-29T02:44:02.714Z,44.6
2018-05-29T02:45:02.743Z,44.7
2018-05-29T02:46:02.776Z,44.7
2018-05-29T02:47:02.510Z,44.67
2018-05-29T02:48:02.538Z,44.87
2018-05-29T02:49:02.844Z,44.79
2018-05-29T02:50:02.874Z,44.77
2018-05-29T02:51:02.876Z,44.96
2018-05-29T02:52:02.657Z,45.06
2018-05-29T02:53:02.955Z,45.08
2018-05-29T02:54:02.982Z,45.18
2018-05-29T02:55:02.993Z,45.08
2018-05-29T02:56:03.008Z,45.35
2018-05-29T02:57:03.052Z,45.25
2018-05-29T02:58:03.089Z,45.35
2018-05-29T02:59:03.096Z,45.25
2018-05-29T03:00:03.130Z,45.25
2018-05-29T03:01:03.170Z,45.25
2018-05-29T03:02:02.936Z,45.45
2018-05-29T03:03:02.933Z,45.25
2018-05-29T03:04:03.613Z,45.25
2018-05-29T03:05:03.241Z,45.45
2018-05-29T03:06:03.044Z,45.45
2018-05-29T03:07:03.309Z,45.35
2018-05-29T03:08:03.385Z,45.16
2018-05-29T03:09:03.353Z,45.64
2018-05-29T03:10:03.390Z,45.54
2018-05-29T03:11:03.410Z,45.74
2018-05-29T03:12:03.444Z,45.64
2018-05-29T03:13:03.470Z,45.54
2018-05-29T03:14:03.237Z,45.74
2018-05-29T03:15:03.528Z,45.64
2018-05-29T03:16:03.531Z,45.35
2018-05-29T03:17:03.564Z,45.54
2018-05-29T03:18:03.321Z,45.74
2018-05-29T03:19:03.347Z,45.74
2018-05-29T03:20:03.397Z,45.74
2018-05-29T03:21:03.836Z,45.62
2018-05-29T03:22:03.702Z,45.72
2018-05-29T03:23:03.721Z,45.74
2018-05-29T03:24:03.739Z,45.42
2018-05-29T03:25:03.689Z,45.54
2018-05-29T03:26:03.801Z,45.72
2018-05-29T03:27:03.819Z,45.72
2018-05-29T03:28:03.594Z,45.62
2018-05-29T03:29:03.879Z,45.54
2018-05-29T03:30:03.881Z,45.74
2018-05-29T03:31:03.917Z,45.52
2018-05-29T03:32:03.683Z,45.72
2018-05-29T03:33:04.001Z,45.62
2018-05-29T03:34:04.010Z,45.62
2018-05-29T03:35:03.759Z,45.62
2018-05-29T03:36:03.775Z,45.62
2018-05-29T03:37:03.808Z,45.62
2018-05-29T03:38:04.094Z,45.42
2018-05-29T03:39:04.139Z,45.62
2018-05-29T03:40:04.160Z,45.62
2018-05-29T03:41:04.191Z,45.81
2018-05-29T03:42:03.931Z,46
2018-05-29T03:43:04.251Z,45.81
2018-05-29T03:44:04.263Z,45.91
2018-05-29T03:45:04.295Z,45.81
2018-05-29T03:46:04.312Z,46.1
2018-05-29T03:47:04.071Z,45.91
2018-05-29T03:48:04.092Z,45.81
2018-05-29T03:49:04.105Z,45.72
2018-05-29T03:50:04.407Z,45.62
2018-05-29T03:51:04.450Z,45.91
2018-05-29T03:52:04.188Z,45.81
2018-05-29T03:53:04.484Z,45.81
2018-05-29T03:54:04.233Z,46.1
2018-05-29T03:55:04.526Z,45.91
2018-05-29T03:56:04.300Z,45.81
2018-05-29T03:57:04.597Z,46
2018-05-29T03:58:04.623Z,45.91
2018-05-29T03:59:04.650Z,46
2018-05-29T04:00:04.388Z,46
2018-05-29T04:01:04.412Z,46.1
2018-05-29T04:02:04.727Z,46
2018-05-29T04:03:04.472Z,46.1
2018-05-29T04:04:04.752Z,46.1
2018-05-29T04:05:04.793Z,46.2
2018-05-29T04:06:04.550Z,46
2018-05-29T04:07:04.833Z,46
2018-05-29T04:08:04.602Z,46
2018-05-29T04:09:04.884Z,46.2
2018-05-29T04:10:05.022Z,45.81
2018-05-29T04:11:04.678Z,46.1
2018-05-29T04:12:04.970Z,46.1
2018-05-29T04:13:05.023Z,45.98
2018-05-29T04:14:05.022Z,46
2018-05-29T04:15:05.074Z,45.98
2018-05-29T04:16:05.062Z,46
2018-05-29T04:17:04.930Z,46.2
2018-05-29T04:18:05.120Z,45.91
2018-05-29T04:19:05.141Z,46
2018-05-29T04:20:05.188Z,46.2
2018-05-29T04:21:04.929Z,46.27
2018-05-29T04:22:05.213Z,46
2018-05-29T04:23:05.242Z,46.2
2018-05-29T04:24:05.283Z,46.3
2018-05-29T04:25:05.034Z,46.2
2018-05-29T04:26:05.432Z,46.17
2018-05-29T04:27:05.076Z,46.3
2018-05-29T04:28:05.101Z,46.3
2018-05-29T04:29:05.508Z,46.39
2018-05-29T04:30:05.482Z,46.47
2018-05-29T04:31:05.504Z,46.3
2018-05-29T04:32:05.240Z,46.39
2018-05-29T04:33:05.584Z,46.39
2018-05-29T04:34:05.538Z,46.17
2018-05-29T04:35:05.298Z,46.3
2018-05-29T04:36:05.582Z,46.37
2018-05-29T04:37:05.610Z,46.39
2018-05-29T04:38:05.366Z,46.58
2018-05-29T04:39:05.375Z,46.27
2018-05-29T04:40:05.667Z,46.47
2018-05-29T04:41:05.439Z,46.39
2018-05-29T04:42:05.746Z,46.47
2018-05-29T04:43:05.744Z,46.39
2018-05-29T04:44:05.775Z,46.27
2018-05-29T04:45:05.838Z,46.27
2018-05-29T04:46:05.567Z,46.39
2018-05-29T04:47:05.961Z,46.17
2018-05-29T04:48:06.002Z,46.27
2018-05-29T04:49:05.914Z,46.39
2018-05-29T04:50:05.654Z,46.39
2018-05-29T04:51:05.827Z,46.37
2018-05-29T04:52:05.974Z,46.49
2018-05-29T04:53:06.016Z,46.56
2018-05-29T04:54:05.770Z,46.47
2018-05-29T04:55:06.065Z,46.27
2018-05-29T04:56:06.004Z,46.3
2018-05-29T04:57:06.116Z,46.27
2018-05-29T04:58:05.857Z,46.17
2018-05-29T04:59:06.157Z,46.75
2018-05-29T05:00:05.910Z,46.85
2018-05-29T05:01:05.930Z,46.2
2018-05-29T05:02:06.529Z,46.47
2018-05-29T05:03:06.266Z,46.66
2018-05-29T05:04:06.277Z,46.47
2018-05-29T05:05:06.317Z,46.47
2018-05-29T05:07:06.082Z,46.47
2018-05-29T05:08:06.111Z,46.95
2018-05-29T05:09:06.398Z,46.66
2018-05-29T05:10:06.443Z,46.75
2018-05-29T05:11:06.185Z,46.75
2018-05-29T05:12:06.227Z,46.66
2018-05-29T05:13:06.511Z,46.66
2018-05-29T05:14:06.273Z,46.56
2018-05-29T05:15:06.581Z,46.56
2018-05-29T05:16:06.607Z,46.47
2018-05-29T05:17:06.446Z,46.75
2018-05-29T05:18:06.639Z,46.95
2018-05-29T05:19:06.670Z,46.75
2018-05-29T05:20:06.684Z,47.05
2018-05-29T05:21:06.445Z,46.75
2018-05-29T05:22:06.735Z,46.75
2018-05-29T05:23:06.757Z,46.66
2018-05-29T05:24:06.796Z,46.95
2018-05-29T05:25:06.542Z,46.85
2018-05-29T05:26:06.839Z,46.75
2018-05-29T05:27:06.856Z,46.56
2018-05-29T05:28:06.883Z,46.66
2018-05-29T05:29:06.900Z,46.66
2018-05-29T05:30:07.036Z,46.75
2018-05-29T05:31:06.683Z,46.75
2018-05-29T05:32:07.184Z,46.75
2018-05-29T05:33:07.021Z,46.58
2018-05-29T05:34:06.769Z,46.56
2018-05-29T05:35:07.087Z,47.43
2018-05-29T05:36:07.080Z,47.07
2018-05-29T05:37:06.851Z,47.07
2018-05-29T05:38:07.141Z,46.66
2018-05-29T05:39:06.899Z,47.26
2018-05-29T05:40:07.176Z,47.07
2018-05-29T05:41:07.221Z,47.24
2018-05-29T05:42:07.234Z,47.24
2018-05-29T05:43:07.269Z,47.26
2018-05-29T05:44:07.279Z,46.97
2018-05-29T05:45:07.317Z,47.05
2018-05-29T05:46:07.460Z,47.24
2018-05-29T05:47:07.360Z,47.05
2018-05-29T05:48:07.117Z,47.45
2018-05-29T05:49:07.423Z,47.74
2018-05-29T05:50:07.431Z,47.45
2018-05-29T05:51:07.472Z,47.36
2018-05-29T05:52:07.483Z,47.26
2018-05-29T05:53:07.253Z,47.24
2018-05-29T05:54:07.553Z,47.36
2018-05-29T05:55:07.289Z,47.26
2018-05-29T05:56:07.596Z,47.36
2018-05-29T05:57:07.338Z,47.26
2018-05-29T05:58:07.365Z,47.74
2018-05-29T05:59:07.388Z,47.74
2018-05-29T06:00:07.408Z,47.55
2018-05-29T06:01:07.716Z,47.55
2018-05-29T06:02:07.744Z,47.16
2018-05-29T06:03:07.757Z,47.84
2018-05-29T06:04:07.522Z,48.13
2018-05-29T06:05:07.851Z,47.84
2018-05-29T06:06:07.861Z,47.84
2018-05-29T06:07:07.875Z,47.94
2018-05-29T06:08:07.881Z,47.36
2018-05-29T06:09:07.912Z,48.03
2018-05-29T06:10:07.665Z,48.23
2018-05-29T06:11:07.974Z,48.13
2018-05-29T06:12:07.713Z,48.03
2018-05-29T06:13:08.029Z,47.86
2018-05-29T06:14:07.770Z,47.58
2018-05-29T06:15:08.060Z,47.86
2018-05-29T06:16:08.100Z,47.67
2018-05-29T06:17:07.854Z,47.28
2018-05-29T06:18:08.151Z,47.58
2018-05-29T06:19:08.178Z,47.48
2018-05-29T06:20:08.182Z,47.28
2018-05-29T06:21:07.940Z,47.38
2018-05-29T06:22:08.238Z,47.38
2018-05-29T06:23:08.285Z,47.19
2018-05-29T06:24:08.286Z,47.28
2018-05-29T06:25:08.043Z,47.09
2018-05-29T06:26:08.361Z,46.8
2018-05-29T06:27:08.374Z,46.8
2018-05-29T06:28:08.394Z,46.7
2018-05-29T06:29:08.413Z,46.34
2018-05-29T06:30:08.170Z,46.42
2018-05-29T06:31:08.459Z,46.53
2018-05-29T06:32:08.229Z,46.51
2018-05-29T06:33:08.523Z,46.34
2018-05-29T06:34:08.551Z,46.25
2018-05-29T06:35:08.302Z,45.95
2018-05-29T06:36:08.588Z,46.05
2018-05-29T06:37:08.623Z,46.15
2018-05-29T06:38:08.737Z,46.05
2018-05-29T06:39:08.660Z,45.95
2018-05-29T06:40:08.700Z,45.86
2018-05-29T06:41:08.722Z,45.95
2018-05-29T06:42:08.741Z,45.76
2018-05-29T06:43:08.508Z,45.95
2018-05-29T06:44:08.792Z,45.86
2018-05-29T06:45:08.950Z,45.86
2018-05-29T06:46:08.856Z,45.86
2018-05-29T06:47:08.600Z,45.66
2018-05-29T06:48:08.629Z,45.76
2018-05-29T06:49:08.933Z,45.66
2018-05-29T06:50:08.947Z,45.66
2018-05-29T06:51:08.970Z,45.66
2018-05-29T06:52:09.002Z,45.68
2018-05-29T06:53:09.040Z,45.47
2018-05-29T06:54:08.782Z,45.88
2018-05-29T06:55:09.070Z,45.59
2018-05-29T06:56:08.840Z,45.78
2018-05-29T06:57:09.136Z,45.68
2018-05-29T06:58:09.369Z,45.49
2018-05-29T06:59:08.903Z,45.68
2018-05-29T07:00:09.199Z,45.3
2018-05-29T07:01:09.248Z,45.4
2018-05-29T07:02:09.258Z,45.49
2018-05-29T07:03:09.292Z,45.4
2018-05-29T07:04:09.293Z,45.22
2018-05-29T07:05:09.318Z,44.93
2018-05-29T07:06:09.350Z,44.64
2018-05-29T07:07:09.495Z,44.93
2018-05-29T07:08:09.138Z,44.74
2018-05-29T07:09:09.438Z,44.64
2018-05-29T07:10:09.465Z,44.35
2018-05-29T07:11:09.215Z,44.64
2018-05-29T07:12:09.522Z,44.27
2018-05-29T07:13:09.530Z,44.37
2018-05-29T07:14:09.278Z,44.37
2018-05-29T07:15:09.583Z,44.57
2018-05-29T07:16:09.654Z,44.47
2018-05-29T07:17:09.627Z,44.27
2018-05-29T07:18:09.667Z,44.4
2018-05-29T07:19:09.686Z,44.01
2018-05-29T07:20:09.456Z,44.2
2018-05-29T07:21:09.750Z,44.2
2018-05-29T07:22:09.779Z,44.2
2018-05-29T07:23:09.782Z,44.3
2018-05-29T07:24:09.828Z,44.01
2018-05-29T07:25:09.835Z,44.01
2018-05-29T07:26:09.602Z,44.13
2018-05-29T07:27:09.909Z,43.93
2018-05-29T07:28:09.926Z,43.74
2018-05-29T07:29:09.961Z,43.93
2018-05-29T07:30:09.983Z,43.76
2018-05-29T07:31:10.006Z,43.57
2018-05-29T07:32:09.752Z,44.15
2018-05-29T07:33:10.061Z,43.95
2018-05-29T07:34:10.069Z,43.3
2018-05-29T07:35:09.826Z,43.3
2018-05-29T07:36:10.136Z,43.1
2018-05-29T07:37:10.155Z,43.1
2018-05-29T07:38:09.918Z,43.2
2018-05-29T07:39:09.946Z,42.61
2018-05-29T07:40:10.224Z,42.61
2018-05-29T07:41:10.277Z,42.64
2018-05-29T07:42:10.286Z,42.83
2018-05-29T07:43:10.328Z,42.54
2018-05-29T07:44:10.338Z,42.35
2018-05-29T07:45:10.509Z,42.27
2018-05-29T07:46:10.398Z,42.36
2018-05-29T07:47:10.426Z,41.49
2018-05-29T07:48:10.465Z,41.78
2018-05-29T07:49:10.484Z,41.59
2018-05-29T07:50:10.229Z,41.59
2018-05-29T07:51:10.534Z,41.22
2018-05-29T07:52:10.538Z,41.51
2018-05-29T07:53:10.582Z,41.42
2018-05-29T07:54:10.596Z,41.32
2018-05-29T07:55:10.619Z,41.24
2018-05-29T07:56:10.648Z,40.95
2018-05-29T07:57:10.670Z,40.95
2018-05-29T07:58:10.711Z,40.47
2018-05-29T07:59:10.728Z,40.37
2018-05-29T08:00:10.770Z,40.47
2018-05-29T08:01:10.513Z,40.19
2018-05-29T08:02:10.824Z,40.09
2018-05-29T08:03:10.573Z,40.09
2018-05-29T08:04:10.881Z,40.31
2018-05-29T08:05:10.905Z,40.01
2018-05-29T08:06:10.910Z,39.92
2018-05-29T08:07:10.684Z,39.72
2018-05-29T08:08:10.981Z,39.72
2018-05-29T08:09:10.741Z,39.43
2018-05-29T08:10:10.768Z,39.26
2018-05-29T08:11:11.074Z,38.96
2018-05-29T08:12:11.079Z,39.26
2018-05-29T08:13:11.126Z,38.96
2018-05-29T08:14:10.877Z,39.16
2018-05-29T08:15:11.159Z,38.87
2018-05-29T08:16:10.926Z,38.89
2018-05-29T08:17:11.233Z,38.98
2018-05-29T08:18:11.276Z,38.98
2018-05-29T08:19:11.284Z,38.69
2018-05-29T08:20:11.293Z,37.93
2018-05-29T08:21:11.319Z,38.61
2018-05-29T08:22:11.354Z,38.02
2018-05-29T08:23:11.379Z,37.93
2018-05-29T08:24:11.420Z,37.65
2018-05-29T08:25:11.431Z,37.65
2018-05-29T08:26:11.477Z,37.17
2018-05-29T08:27:11.488Z,37.37
2018-05-29T08:28:11.517Z,37.37
2018-05-29T08:29:11.545Z,37.27
2018-05-29T08:30:11.569Z,37.09
2018-05-29T08:31:11.592Z,36.41
2018-05-29T08:32:11.642Z,36.99
2018-05-29T08:33:11.662Z,36.99
2018-05-29T08:34:11.684Z,36.7
2018-05-29T08:35:11.448Z,36.62
2018-05-29T08:36:11.736Z,36.13
2018-05-29T08:37:11.516Z,36.04
2018-05-29T08:38:11.815Z,35.64
2018-05-29T08:39:11.834Z,36.34
2018-05-29T08:40:11.855Z,35.75
2018-05-29T08:41:11.889Z,35.85
2018-05-29T08:42:11.923Z,35.27
2018-05-29T08:43:11.944Z,35.46
2018-05-29T08:44:11.967Z,35.36
2018-05-29T08:45:12.007Z,35.38
2018-05-29T08:46:12.110Z,35.09
2018-05-29T08:47:12.071Z,34.6
2018-05-29T08:48:11.810Z,34.72
2018-05-29T08:49:12.109Z,34.72
2018-05-29T08:50:12.156Z,34.42
2018-05-29T08:51:12.156Z,34.23
2018-05-29T08:52:12.198Z,33.95
2018-05-29T08:53:11.960Z,33.65
2018-05-29T08:54:12.271Z,33.56
2018-05-29T08:55:12.280Z,33.75
2018-05-29T08:56:12.328Z,33.56
2018-05-29T08:57:12.379Z,33.67
2018-05-29T08:58:12.386Z,32.79
2018-05-29T08:59:12.398Z,32.99
2018-05-29T09:00:12.451Z,32.4
2018-05-29T09:01:12.465Z,32.4
2018-05-29T09:02:12.484Z,32.71
2018-05-29T09:03:12.510Z,32.51
2018-05-29T09:04:12.646Z,32.61
2018-05-29T09:05:12.302Z,32.71
2018-05-29T09:06:12.615Z,32.12
2018-05-29T09:07:12.373Z,32.51
2018-05-29T09:08:12.678Z,32.14
2018-05-29T09:09:12.700Z,32.43
2018-05-29T09:10:12.732Z,32.34
2018-05-29T09:11:12.765Z,31.84
2018-05-29T09:12:12.792Z,32.06
2018-05-29T09:13:12.543Z,31.96
2018-05-29T09:14:12.831Z,31.76
2018-05-29T09:15:12.611Z,31.67
2018-05-29T09:16:12.891Z,31.27
2018-05-29T09:17:12.667Z,31.29
2018-05-29T09:18:12.686Z,30.99
2018-05-29T09:19:12.722Z,30.6
2018-05-29T09:20:13.017Z,30.5
2018-05-29T09:21:13.049Z,30.52
2018-05-29T09:22:12.818Z,30.71
2018-05-29T09:23:13.114Z,30.71
2018-05-29T09:24:12.868Z,30.71
2018-05-29T09:25:13.161Z,30.91
2018-05-29T09:26:13.192Z,29.94
2018-05-29T09:27:13.219Z,30.24
2018-05-29T09:28:12.988Z,29.75
2018-05-29T09:29:13.300Z,29.45
2018-05-29T09:30:13.332Z,29.66
2018-05-29T09:31:13.349Z,29.76
2018-05-29T09:32:13.374Z,29.57
2018-05-29T09:33:13.140Z,29.37
2018-05-29T09:34:13.463Z,29.76
2018-05-29T09:35:13.465Z,29.09
2018-05-29T09:36:13.238Z,29.28
2018-05-29T09:37:13.264Z,28.99
2018-05-29T09:38:13.291Z,28.89
2018-05-29T09:39:13.319Z,28.4
2018-05-29T09:40:13.638Z,29
2018-05-29T09:41:13.644Z,28.91
2018-05-29T09:42:13.697Z,28.7
2018-05-29T09:43:13.447Z,28.51
2018-05-29T09:44:13.755Z,28.51
2018-05-29T09:45:13.779Z,28.12
2018-05-29T09:46:13.535Z,28.03
2018-05-29T09:47:13.845Z,28.13
2018-05-29T09:48:13.655Z,27.54
2018-05-29T09:49:13.909Z,27.36
2018-05-29T09:50:13.959Z,27.54
2018-05-29T09:51:13.959Z,27.85
2018-05-29T09:52:14.024Z,27.45
2018-05-29T09:53:14.034Z,27.45
2018-05-29T09:54:14.054Z,27.45
2018-05-29T09:55:13.820Z,27.26
2018-05-29T09:56:13.848Z,27.17
2018-05-29T09:57:13.885Z,26.68
2018-05-29T09:58:14.183Z,26.78
2018-05-29T09:59:14.212Z,26.78
2018-05-29T10:00:13.985Z,26.78
2018-05-29T10:01:14.392Z,26.78
2018-05-29T10:02:14.298Z,26.98
2018-05-29T10:03:14.074Z,26.48
2018-05-29T10:04:14.376Z,26.5
2018-05-29T10:05:14.402Z,26.2
2018-05-29T10:06:14.447Z,26.01
2018-05-29T10:07:14.573Z,26.3
2018-05-29T10:08:14.515Z,25.9
2018-05-29T10:09:14.520Z,26.2
2018-05-29T10:10:14.563Z,26.31
2018-05-29T10:11:14.627Z,25.82
2018-05-29T10:12:14.643Z,26.31
2018-05-29T10:13:14.708Z,26.41
2018-05-29T10:14:14.689Z,26.41
2018-05-29T10:15:14.733Z,26.02
2018-05-29T10:16:14.762Z,26.03
2018-05-29T10:17:14.810Z,25.83
2018-05-29T10:18:14.822Z,25.63
2018-05-29T10:19:14.861Z,25.44
2018-05-29T10:20:14.890Z,25.55
2018-05-29T10:21:14.923Z,25.65
2018-05-29T10:22:14.949Z,25.65
2018-05-29T10:23:14.977Z,25.65
2018-05-29T10:24:14.751Z,25.55
2018-05-29T10:25:15.056Z,25.65
2018-05-29T10:26:15.075Z,25.45
2018-05-29T10:27:15.120Z,25.16
2018-05-29T10:28:15.160Z,24.76
2018-05-29T10:29:15.175Z,24.38
2018-05-29T10:30:15.205Z,24.57
2018-05-29T10:31:15.259Z,24.57
2018-05-29T10:32:15.294Z,24.49
2018-05-29T10:33:15.320Z,24.79
2018-05-29T10:34:15.348Z,23.8
2018-05-29T10:35:15.530Z,24.19
2018-05-29T10:36:15.399Z,24.01
2018-05-29T10:37:15.457Z,23.51
2018-05-29T10:38:15.465Z,23.61
2018-05-29T10:39:15.517Z,23.51
2018-05-29T10:40:15.272Z,23.11
2018-05-29T10:41:15.587Z,23.41
2018-05-29T10:42:15.334Z,23.22
2018-05-29T10:43:15.653Z,23.22
2018-05-29T10:44:15.673Z,23.22
2018-05-29T10:45:15.716Z,23.33
2018-05-29T10:46:15.470Z,23.33
2018-05-29T10:47:15.783Z,22.53
2018-05-29T10:48:15.808Z,23.03
2018-05-29T10:49:15.843Z,22.83
2018-05-29T10:50:15.611Z,22.73
2018-05-29T10:51:15.921Z,22.93
2018-05-29T10:52:15.672Z,22.63
2018-05-29T10:53:15.984Z,22.63
2018-05-29T10:54:16.022Z,22.25
2018-05-29T10:55:16.053Z,22.34
2018-05-29T10:56:16.075Z,22.74
2018-05-29T10:57:16.107Z,22.45
2018-05-29T10:58:16.157Z,22.55
2018-05-29T10:59:16.244Z,21.75
2018-05-29T11:00:16.219Z,21.77
2018-05-29T11:01:16.235Z,21.56
2018-05-29T11:02:16.290Z,21.37
2018-05-29T11:03:16.039Z,21.17
2018-05-29T11:04:16.338Z,20.97
2018-05-29T11:05:16.397Z,21.07
2018-05-29T11:06:16.412Z,20.57
2018-05-29T11:07:16.473Z,20.78
2018-05-29T11:08:16.495Z,20.57
2018-05-29T11:09:16.257Z,20.68
2018-05-29T11:10:16.573Z,20.59
2018-05-29T11:11:16.332Z,20.68
2018-05-29T11:12:16.618Z,20.29
2018-05-29T11:13:16.665Z,20.09
2018-05-29T11:14:16.740Z,20.19
2018-05-29T11:15:16.724Z,20
2018-05-29T11:16:16.780Z,19.79
2018-05-29T11:17:16.811Z,19.7
2018-05-29T11:18:16.836Z,19.6
2018-05-29T11:19:16.856Z,19.51
2018-05-29T11:20:16.909Z,19.31
2018-05-29T11:21:16.920Z,19.6
2018-05-29T11:22:16.702Z,19.41
2018-05-29T11:23:16.729Z,19.51
2018-05-29T11:24:17.033Z,19.51
2018-05-29T11:25:17.064Z,19.31
2018-05-29T11:26:16.834Z,19.42
2018-05-29T11:27:17.144Z,19.62
2018-05-29T11:28:17.176Z,19.02
2018-05-29T11:29:17.208Z,19.32
2018-05-29T11:30:17.268Z,19.12
2018-05-29T11:31:17.072Z,18.82
2018-05-29T11:32:17.313Z,19.03
2018-05-29T11:33:17.347Z,19.13
2018-05-29T11:34:17.396Z,19.03
2018-05-29T11:35:17.415Z,18.63
2018-05-29T11:36:17.454Z,18.73
2018-05-29T11:37:17.506Z,18.73
2018-05-29T11:38:17.547Z,18.94
2018-05-29T11:39:17.552Z,18.63
2018-05-29T11:40:17.329Z,18.84
2018-05-29T11:41:17.636Z,18.35
2018-05-29T11:42:17.686Z,17.85
2018-05-29T11:43:17.433Z,17.55
2018-05-29T11:44:17.473Z,17.75
2018-05-29T11:45:17.787Z,17.46
2018-05-29T11:46:17.817Z,17.46
2018-05-29T11:47:17.858Z,17.66
2018-05-29T11:48:17.869Z,17.76
2018-05-29T11:49:17.909Z,17.56
2018-05-29T11:50:17.959Z,17.07
2018-05-29T11:51:17.979Z,16.97
2018-05-29T11:52:18.015Z,16.97
2018-05-29T11:53:18.106Z,16.67
2018-05-29T11:54:18.082Z,16.77
2018-05-29T11:55:17.870Z,16.86
2018-05-29T11:56:18.181Z,16.77
2018-05-29T11:57:18.196Z,16.97
2018-05-29T11:58:18.241Z,16.88
2018-05-29T11:59:18.295Z,16.77
2018-05-29T12:00:18.328Z,16.97
2018-05-29T12:01:18.360Z,16.88
2018-05-29T12:02:18.373Z,16.77
2018-05-29T12:03:18.151Z,16.48
2018-05-29T12:04:18.440Z,16.67
2018-05-29T12:05:18.486Z,16.48
2018-05-29T12:06:18.254Z,16.67
2018-05-29T12:07:18.565Z,16.67
2018-05-29T12:08:18.591Z,16.67
2018-05-29T12:09:18.624Z,16.58
2018-05-29T12:10:18.670Z,16.19
2018-05-29T12:11:18.703Z,16.39
2018-05-29T12:12:18.736Z,16.28
2018-05-29T12:13:18.786Z,16.49
2018-05-29T12:14:18.811Z,15.79
2018-05-29T12:15:18.859Z,16.19
2018-05-29T12:16:18.890Z,16.28
2018-05-29T12:17:18.933Z,16.28
2018-05-29T12:18:18.964Z,16.09
2018-05-29T12:19:19.000Z,16.09
2018-05-29T12:20:19.030Z,15.9
2018-05-29T12:21:19.059Z,15.6
2018-05-29T12:22:19.220Z,15.6
2018-05-29T12:23:18.880Z,15.7
2018-05-29T12:24:18.901Z,15.7
2018-05-29T12:25:19.218Z,15.7
2018-05-29T12:26:18.969Z,15.4
2018-05-29T12:27:19.268Z,15.41
2018-05-29T12:28:19.427Z,15.21
2018-05-29T12:29:19.360Z,15.21
2018-05-29T12:30:19.405Z,14.71
2018-05-29T12:31:19.447Z,14.81
2018-05-29T12:32:19.478Z,14.81
2018-05-29T12:33:19.513Z,14.91
2018-05-29T12:34:19.266Z,14.91
2018-05-29T12:35:19.319Z,14.61
2018-05-29T12:36:19.612Z,14.81
2018-05-29T12:37:19.655Z,14.91
2018-05-29T12:38:19.424Z,14.91
2018-05-29T12:39:19.730Z,14.72
2018-05-29T12:40:19.826Z,14.92
2018-05-29T12:41:19.792Z,14.62
2018-05-29T12:42:19.822Z,14.62
2018-05-29T12:43:19.865Z,14.22
2018-05-29T12:44:19.905Z,14.32
2018-05-29T12:45:19.954Z,14.22
2018-05-29T12:46:20.249Z,13.92
2018-05-29T12:47:20.020Z,13.72
2018-05-29T12:48:20.047Z,13.83
2018-05-29T12:49:20.087Z,13.83
2018-05-29T12:50:20.140Z,13.83
2018-05-29T12:51:20.221Z,14.23
2018-05-29T12:52:20.213Z,14.02
2018-05-29T12:53:20.297Z,14.23
2018-05-29T12:54:20.288Z,14.23
2018-05-29T12:55:20.040Z,14.13
2018-05-29T12:56:20.363Z,14.23
2018-05-29T12:57:20.105Z,13.84
2018-05-29T12:58:20.435Z,13.73